Johnsonburg, Pennsylvania
Current Conditions -  °F | °C
As of 12:04 PM on Tuesday 21 Oct 2014 (Local Time) from KBFD Reporting Station
Haze Haze  
Wind Chill: 50°   Ceiling: 2300
Heat Index: 50°   Visibility: 6mi
Dew Point: 46°   Wind: 3mph
Humidity: 86%   Direction: 250°WSW
Pressure: 29.86"   Gusts: NA
Location:  41.49°N, 78.68°W
Report Text: KBFD 211604Z AUTO 25003KT 6SM BR FEW005 BKN023 OVC050 10/08 A2986 RMK AO2 T01000078
Loading
Personal Weather Stations






























Interactive Weather Map
Tropical Storm Tracking
New forecast layout! Learn more

10-Day Weather Forecast

Advertisements
Track Severe Weather on mobile